METAR AND TAF INFORMATION
METAR FOR LGTS
ADDS - METARS form results

(0941 UTC 23 February 2020)
Data provider http://aviationweather.gov/metar/data/
 
METAR text: LGTS 230920Z 29004KT CAVOK 09/M00 Q1027 NOSIG
Conditions at: LGTS (THESSALONIKI/MIK, GR) observed 0920 UTC 23 February 2020
Temperature: 9.0°C (48°F)
Dewpoint: 0.0°C (32°F) [RH = 53%]
Pressure (altimeter): 30.32 inches Hg (1027.0 mb)
Winds: from the WNW (290 degrees) at 5 MPH (4 knots; 2.1 m/s)
Visibility: 6 or more miles (10+ km)
Ceiling: ceiling and visibility are OK
Clouds: unknown
Weather: no significant weather observed at this time

METAR text: LGTS 230850Z 28004KT CAVOK 08/M00 Q1028 NOSIG
Conditions at: LGTS (THESSALONIKI/MIK, GR) observed 0850 UTC 23 February 2020
Temperature: 8.0°C (46°F)
Dewpoint: 0.0°C (32°F) [RH = 57%]
Pressure (altimeter): 30.35 inches Hg (1028.0 mb)
Winds: from the W (280 degrees) at 5 MPH (4 knots; 2.1 m/s)
Visibility: 6 or more miles (10+ km)
Ceiling: ceiling and visibility are OK
Clouds: unknown
Weather: no significant weather observed at this time

Forecast for: LGTS (THESSALONIKI/MIK, GR)
Text: TAF LGTS 230500Z 2306/2406 VRB03KT 9999 FEW025
Forecast period: 0600 UTC 23 February 2020 to 0600 UTC 24 February 2020
Forecast type: FROM: standard forecast or significant change
Winds: variable direction winds at 3 MPH (3 knots; 1.5 m/s)
Visibility: 6 or more miles 10+ km)
Ceiling: at least 12,000 feet AGL
Clouds: few clouds at 2500 feet AGL
Weather: no significant weather forecast for this period

 AIRPORT MAP

 RUNWAY INFORMATION
Runway 10 Runway length 8005 ft Runway width 164 ft
Runway elevation 9 ft Runway displaced threshold 0 ft Runway heading 104
Runway 28 Runway length 8005 ft Runway width 164 ft
Runway elevation 19 ft Runway displaced threshold 0 ft Runway heading 284
Runway 16 Runway length 7907 ft Runway width 197 ft
Runway elevation 14 ft Runway displaced threshold 0 ft Runway heading 166
Runway 34 Runway length 7907 ft Runway width 197 ft
Runway elevation 22 ft Runway displaced threshold 0 ft Runway heading 346

 AIRPORT FREQUENCIES
Type A/G Name RDO Frequency 563.7 MHZ
Type APP Name APP Frequency 120.8 MHZ
Type ATIS Name ATIS Frequency 127.55 MHZ
Type CLD Name CLNC DEL Frequency 118.05 MHZ
Type GND Name GND Frequency 121.7 MHZ
Type TWR Name TWR Frequency 118.1 MHZ

 AIRPORT NEAR NAVIGATION AIDS
Type TACAN Name Mikra Frequency 117400 KHZ
Type TACAN Name Mikra Frequency 115300 KHZ
Type VOR-DME Name Mikra Frequency 110800 KHZ
Type NDB Name Thessaloniki Frequency 345 KHZ
Type VOR-DME Name Thessaloniki Frequency 112100 KHZ



Powered by Heron Airways VA. All Rights Reserved © 2009 [v2.6.2]